createdAt,value
2022-09-20T00:01:32.514Z,93.63
2022-09-20T00:04:05.334Z,94.08
2022-09-20T00:06:34.581Z,94.24
2022-09-20T00:09:03.116Z,94.13
2022-09-20T00:11:34.136Z,94.25
2022-09-20T00:14:05.953Z,94.04
2022-09-20T00:16:38.999Z,93.92
2022-09-20T00:19:07.620Z,94.29
2022-09-20T00:21:36.408Z,94.55
2022-09-20T00:24:04.543Z,94.82
2022-09-20T00:26:31.743Z,94.93
2022-09-20T00:28:59.309Z,94.90
2022-09-20T00:31:26.805Z,95.08
2022-09-20T00:34:14.974Z,94.53
2022-09-20T00:36:42.286Z,93.68
2022-09-20T00:39:13.433Z,93.59
2022-09-20T00:41:40.462Z,94.04
2022-09-20T00:44:48.010Z,93.39
2022-09-20T00:47:22.233Z,92.85
2022-09-20T00:49:56.174Z,93.17
2022-09-20T00:52:24.555Z,93.30
2022-09-20T00:54:51.791Z,93.55
2022-09-20T00:57:18.966Z,93.97
2022-09-20T00:59:51.355Z,94.12
2022-09-20T01:02:25.873Z,94.05
2022-09-20T01:04:54.332Z,93.73
2022-09-20T01:07:23.617Z,93.39
2022-09-20T01:09:51.969Z,93.29
2022-09-20T01:12:25.972Z,93.15
2022-09-20T01:14:54.501Z,93.01
2022-09-20T01:17:26.641Z,93.31
2022-09-20T01:20:22.459Z,93.49
2022-09-20T01:23:37.122Z,93.51
2022-09-20T01:26:38.059Z,93.15
2022-09-20T01:29:42.170Z,93.50
2022-09-20T01:32:16.405Z,93.72
2022-09-20T01:34:51.099Z,93.19
2022-09-20T01:37:36.743Z,92.83
2022-09-20T01:40:48.183Z,93.14
2022-09-20T01:43:41.679Z,93.14
2022-09-20T01:46:32.260Z,93.35
2022-09-20T01:49:47.267Z,93.09
2022-09-20T01:53:04.038Z,92.78
2022-09-20T01:56:08.579Z,93.11
2022-09-20T01:59:23.749Z,93.42
2022-09-20T02:01:54.540Z,93.88
2022-09-20T02:05:02.282Z,93.88
2022-09-20T02:08:21.876Z,94.08
2022-09-20T02:11:53.275Z,94.08
2022-09-20T02:14:41.801Z,94.32
2022-09-20T02:17:24.227Z,94.37
2022-09-20T02:20:14.348Z,94.31
2022-09-20T02:23:30.530Z,94.34
2022-09-20T02:26:11.474Z,94.53
2022-09-20T02:28:45.055Z,95.06
2022-09-20T02:31:39.233Z,94.96
2022-09-20T02:34:30.500Z,94.74
2022-09-20T02:37:36.879Z,94.70
2022-09-20T02:40:37.938Z,94.81
2022-09-20T02:43:37.465Z,94.77
2022-09-20T02:46:41.068Z,94.91
2022-09-20T02:49:29.258Z,94.95
2022-09-20T02:52:32.673Z,95.31
2022-09-20T02:55:36.830Z,95.66
2022-09-20T02:58:38.078Z,95.92
2022-09-20T03:01:24.262Z,96.15
2022-09-20T03:04:09.587Z,95.99
2022-09-20T03:07:05.032Z,95.99
2022-09-20T03:09:47.399Z,95.81
2022-09-20T03:12:40.688Z,95.45
2022-09-20T03:15:43.041Z,95.74
2022-09-20T03:18:16.191Z,95.68
2022-09-20T03:21:31.563Z,95.77
2022-09-20T03:24:32.862Z,95.84
2022-09-20T03:27:43.280Z,95.75
2022-09-20T03:30:48.845Z,95.62
2022-09-20T03:33:29.612Z,95.87
2022-09-20T03:36:08.908Z,96.04
2022-09-20T03:39:12.131Z,95.80
2022-09-20T03:42:12.651Z,95.75
2022-09-20T03:45:14.093Z,95.69
2022-09-20T03:48:09.034Z,95.54
2022-09-20T03:51:23.730Z,95.39
2022-09-20T03:54:49.026Z,95.60
2022-09-20T03:57:43.799Z,95.11
2022-09-20T04:00:56.918Z,94.92
2022-09-20T04:04:04.770Z,94.88
2022-09-20T04:06:58.290Z,94.69
2022-09-20T04:10:10.135Z,94.96
2022-09-20T04:13:21.171Z,95.38
2022-09-20T04:16:34.679Z,95.81
2022-09-20T04:19:11.975Z,95.70
2022-09-20T04:21:56.809Z,95.87
2022-09-20T04:24:33.270Z,95.65
2022-09-20T04:27:18.330Z,95.37
2022-09-20T04:30:21.488Z,95.26
2022-09-20T04:33:14.149Z,95.34
2022-09-20T04:36:30.370Z,95.46
2022-09-20T04:40:14.950Z,95.55
2022-09-20T04:43:18.621Z,95.83
2022-09-20T04:46:30.061Z,95.66
2022-09-20T04:49:20.317Z,95.69
2022-09-20T04:52:03.994Z,95.90
2022-09-20T04:55:13.908Z,95.99
2022-09-20T04:57:58.899Z,96.18
2022-09-20T05:00:48.710Z,96.53
2022-09-20T05:03:52.946Z,96.60
2022-09-20T05:06:52.285Z,96.61
2022-09-20T05:10:15.418Z,96.53
2022-09-20T05:13:22.029Z,96.20
2022-09-20T05:16:26.413Z,95.89
2022-09-20T05:19:13.139Z,96.00
2022-09-20T05:21:56.888Z,95.87
2022-09-20T05:25:29.876Z,96.12
2022-09-20T05:28:34.357Z,96.07
2022-09-20T05:31:41.717Z,96.13
2022-09-20T05:34:26.981Z,96.25
2022-09-20T05:37:35.145Z,96.40
2022-09-20T05:41:05.777Z,96.43
2022-09-20T05:43:43.154Z,96.53
2022-09-20T05:46:46.168Z,96.67
2022-09-20T05:49:25.300Z,96.79
2022-09-20T05:52:18.371Z,96.62
2022-09-20T05:55:34.047Z,96.91
2022-09-20T05:58:42.398Z,96.85
2022-09-20T06:01:26.877Z,96.96
2022-09-20T06:04:18.714Z,96.57
2022-09-20T06:07:02.554Z,96.67
2022-09-20T06:10:24.684Z,96.83
2022-09-20T06:13:35.175Z,96.57
2022-09-20T06:16:04.521Z,96.50
2022-09-20T06:18:45.389Z,96.62
2022-09-20T06:21:41.871Z,96.59
2022-09-20T06:24:53.423Z,96.63
2022-09-20T06:27:29.643Z,96.52
2022-09-20T06:30:05.808Z,96.42
2022-09-20T06:32:34.607Z,96.08
2022-09-20T06:35:04.428Z,95.91
2022-09-20T06:38:11.170Z,96.06
2022-09-20T06:41:06.999Z,95.87
2022-09-20T06:43:37.080Z,95.47
2022-09-20T06:46:04.379Z,95.34
2022-09-20T06:48:31.519Z,95.10
2022-09-20T06:50:58.925Z,94.90
2022-09-20T06:53:32.967Z,94.26
2022-09-20T06:56:01.147Z,93.28
2022-09-20T06:58:28.304Z,92.85
2022-09-20T07:00:55.437Z,92.21
2022-09-20T07:03:22.532Z,92.40
2022-09-20T07:05:49.543Z,92.53
2022-09-20T07:08:16.828Z,92.22
2022-09-20T07:10:44.015Z,91.04
2022-09-20T07:13:14.280Z,90.64
2022-09-20T07:15:41.331Z,90.79
2022-09-20T07:18:08.391Z,91.31
2022-09-20T07:20:35.631Z,91.48
2022-09-20T07:23:03.761Z,90.90
2022-09-20T07:25:32.121Z,90.78
2022-09-20T07:27:59.142Z,90.01
2022-09-20T07:30:26.207Z,90.04
2022-09-20T07:32:53.620Z,89.72
2022-09-20T07:35:21.587Z,88.66
2022-09-20T07:37:48.680Z,88.93
2022-09-20T07:40:16.424Z,87.38
2022-09-20T07:42:45.967Z,85.88
2022-09-20T07:45:13.350Z,85.20
2022-09-20T07:47:42.044Z,84.15
2022-09-20T07:50:11.203Z,84.86
2022-09-20T07:52:38.322Z,83.96
2022-09-20T07:55:06.906Z,84.70
2022-09-20T07:57:38.387Z,84.41
2022-09-20T08:00:09.353Z,84.23
2022-09-20T08:02:41.975Z,84.68
2022-09-20T08:05:09.618Z,83.92
2022-09-20T08:07:38.534Z,83.65
2022-09-20T08:10:06.222Z,83.44
2022-09-20T08:15:20.229Z,84.07
2022-09-20T08:17:48.377Z,83.82
2022-09-20T08:20:16.801Z,83.58
2022-09-20T08:22:45.848Z,83.80
2022-09-20T08:25:19.871Z,84.19
2022-09-20T08:27:53.884Z,82.11
2022-09-20T08:30:25.569Z,81.57
2022-09-20T08:32:55.771Z,80.75
2022-09-20T08:35:22.778Z,80.86
2022-09-20T08:37:53.660Z,81.39
2022-09-20T08:40:24.215Z,81.16
2022-09-20T08:42:53.439Z,80.14
2022-09-20T08:45:41.417Z,78.00
2022-09-20T08:48:16.755Z,78.18
2022-09-20T08:50:44.070Z,76.91
2022-09-20T08:53:14.929Z,76.93
2022-09-20T08:55:43.714Z,77.90
2022-09-20T08:58:13.538Z,78.03
2022-09-20T09:00:46.831Z,77.56
2022-09-20T09:03:17.540Z,77.25
2022-09-20T09:05:54.978Z,75.54
2022-09-20T09:08:37.533Z,74.03
2022-09-20T09:11:18.638Z,73.85
2022-09-20T09:14:48.859Z,73.48
2022-09-20T09:17:27.451Z,74.75
2022-09-20T09:19:56.443Z,75.49
2022-09-20T09:22:39.595Z,73.02
2022-09-20T09:25:24.975Z,73.63
2022-09-20T09:28:06.391Z,73.93
2022-09-20T09:30:47.697Z,72.13
2022-09-20T09:33:28.218Z,69.96
2022-09-20T09:36:06.675Z,67.28
2022-09-20T09:38:41.473Z,68.33
2022-09-20T09:41:35.611Z,69.22
2022-09-20T09:44:20.395Z,68.59
2022-09-20T09:46:50.135Z,68.93
2022-09-20T09:49:36.579Z,70.66
2022-09-20T09:52:14.307Z,71.70
2022-09-20T09:54:48.923Z,72.10
2022-09-20T09:57:34.228Z,71.47
2022-09-20T10:00:21.938Z,70.28
2022-09-20T10:03:04.326Z,68.94
2022-09-20T10:06:07.351Z,68.46
2022-09-20T10:09:19.300Z,70.20
2022-09-20T10:12:02.643Z,71.41
2022-09-20T10:15:10.347Z,73.08
2022-09-20T10:18:08.568Z,74.82
2022-09-20T10:20:53.250Z,76.06
2022-09-20T10:24:03.241Z,75.58
2022-09-20T10:26:56.627Z,74.89
2022-09-20T10:29:32.784Z,75.90
2022-09-20T10:32:33.198Z,76.59
2022-09-20T10:36:00.719Z,77.36
2022-09-20T10:38:36.731Z,77.92
2022-09-20T10:41:39.683Z,78.24
2022-09-20T10:44:18.833Z,77.85
2022-09-20T10:46:55.627Z,77.56
2022-09-20T10:49:50.721Z,76.27
2022-09-20T10:52:43.819Z,76.10
2022-09-20T10:55:32.855Z,75.75
2022-09-20T10:58:41.852Z,74.59
2022-09-20T11:01:47.592Z,73.08
2022-09-20T11:04:55.181Z,74.33
2022-09-20T11:07:50.982Z,73.93
2022-09-20T11:10:29.802Z,73.60
2022-09-20T11:13:25.015Z,73.00
2022-09-20T11:16:13.486Z,71.25
2022-09-20T11:18:48.305Z,71.46
2022-09-20T11:21:39.554Z,70.43
2022-09-20T11:24:35.788Z,66.93
2022-09-20T11:27:15.943Z,66.74
2022-09-20T11:30:08.277Z,66.42
2022-09-20T11:32:44.533Z,65.13
2022-09-20T11:35:11.506Z,63.06
2022-09-20T11:37:56.379Z,63.05
2022-09-20T11:40:32.638Z,62.48
2022-09-20T11:43:06.458Z,60.96
2022-09-20T11:45:35.783Z,61.62
2022-09-20T11:48:33.432Z,60.28
2022-09-20T11:51:34.207Z,60.63
2022-09-20T11:54:58.406Z,60.53
2022-09-20T11:57:25.927Z,60.19
2022-09-20T12:00:01.642Z,59.78
2022-09-20T12:02:40.739Z,60.57
2022-09-20T12:05:43.823Z,60.12
2022-09-20T12:08:40.402Z,60.00
2022-09-20T12:11:13.233Z,59.21
2022-09-20T12:13:52.153Z,58.97
2022-09-20T12:16:46.848Z,57.75
2022-09-20T12:19:36.559Z,57.02
2022-09-20T12:22:04.118Z,57.60
2022-09-20T12:24:44.541Z,57.01
2022-09-20T12:27:26.399Z,56.14
2022-09-20T12:30:21.591Z,55.95
2022-09-20T12:32:57.866Z,57.83
2022-09-20T12:35:38.951Z,57.35
2022-09-20T12:38:21.386Z,56.90
2022-09-20T12:41:27.934Z,56.65
2022-09-20T12:44:22.320Z,56.49
2022-09-20T12:47:12.600Z,55.64
2022-09-20T12:50:04.371Z,55.03
2022-09-20T12:52:57.673Z,56.16
2022-09-20T12:55:28.044Z,55.94
2022-09-20T12:58:18.877Z,55.70
2022-09-20T13:01:14.570Z,54.67
2022-09-20T13:03:48.346Z,54.71
2022-09-20T13:06:16.675Z,54.77
2022-09-20T13:09:08.545Z,55.18
2022-09-20T13:11:43.756Z,54.81
2022-09-20T13:14:18.836Z,55.51
2022-09-20T13:17:05.372Z,55.55
2022-09-20T13:19:39.007Z,55.58
2022-09-20T13:22:14.848Z,55.08
2022-09-20T13:24:49.199Z,56.55
2022-09-20T13:27:23.814Z,56.67
2022-09-20T13:29:51.591Z,55.84
2022-09-20T13:32:25.404Z,54.60
2022-09-20T13:35:19.144Z,52.04
2022-09-20T13:38:05.640Z,51.51
2022-09-20T13:40:42.340Z,51.72
2022-09-20T13:43:31.310Z,48.70
2022-09-20T13:46:08.227Z,47.75
2022-09-20T13:48:35.730Z,47.65
2022-09-20T13:51:03.302Z,47.87
2022-09-20T13:53:42.119Z,47.05
2022-09-20T13:56:19.520Z,46.85
2022-09-20T13:58:46.861Z,45.95
2022-09-20T14:01:32.695Z,46.00
2022-09-20T14:04:14.585Z,46.42
2022-09-20T14:06:42.532Z,47.55
2022-09-20T14:09:23.608Z,45.80
2022-09-20T14:11:53.318Z,44.17
2022-09-20T14:14:22.976Z,46.38
2022-09-20T14:16:52.087Z,45.98
2022-09-20T14:19:35.969Z,46.03
2022-09-20T14:22:05.402Z,47.04
2022-09-20T14:24:37.181Z,45.71
2022-09-20T14:27:26.402Z,45.39
2022-09-20T14:29:56.282Z,46.36
2022-09-20T14:32:54.418Z,46.08
2022-09-20T14:35:23.090Z,46.65
2022-09-20T14:38:02.643Z,47.15
2022-09-20T14:40:44.160Z,47.81
2022-09-20T14:43:36.236Z,48.17
2022-09-20T14:46:16.214Z,49.62
2022-09-20T14:48:45.442Z,50.76
2022-09-20T14:51:18.862Z,50.79
2022-09-20T14:53:52.774Z,50.94
2022-09-20T14:56:51.685Z,51.90
2022-09-20T14:59:20.974Z,51.84
2022-09-20T15:02:10.183Z,52.43
2022-09-20T15:04:40.542Z,53.43
2022-09-20T15:07:11.738Z,52.62
2022-09-20T15:09:39.090Z,53.80
2022-09-20T15:12:16.952Z,51.69
2022-09-20T15:14:46.098Z,51.31
2022-09-20T15:17:18.351Z,53.18
2022-09-20T15:19:49.075Z,53.92
2022-09-20T15:22:16.824Z,53.12
2022-09-20T15:24:44.745Z,52.88
2022-09-20T15:27:12.976Z,53.47
2022-09-20T15:29:40.135Z,54.33
2022-09-20T15:32:10.562Z,53.17
2022-09-20T15:34:38.113Z,51.52
2022-09-20T15:37:05.184Z,49.76
2022-09-20T15:39:32.237Z,48.53
2022-09-20T15:41:59.249Z,47.97
2022-09-20T15:44:26.210Z,47.17
2022-09-20T15:46:53.643Z,47.99
2022-09-20T15:49:22.060Z,47.46
2022-09-20T15:51:49.378Z,47.07
2022-09-20T15:54:16.948Z,47.49
2022-09-20T15:56:43.987Z,47.02
2022-09-20T15:59:13.266Z,47.47
2022-09-20T16:01:44.540Z,48.41
2022-09-20T16:04:21.049Z,49.66
2022-09-20T16:06:50.382Z,49.27
2022-09-20T16:09:18.511Z,49.36
2022-09-20T16:11:49.086Z,49.61
2022-09-20T16:14:16.804Z,50.21
2022-09-20T16:16:43.980Z,50.83
2022-09-20T16:19:24.867Z,51.51
2022-09-20T16:21:58.943Z,51.88
2022-09-20T16:24:33.933Z,50.78
2022-09-20T16:27:04.537Z,51.70
2022-09-20T16:29:33.462Z,51.96
2022-09-20T16:32:03.534Z,51.95
2022-09-20T16:34:36.218Z,51.78
2022-09-20T16:37:08.816Z,51.94
2022-09-20T16:39:36.857Z,51.52
2022-09-20T16:42:08.690Z,52.13
2022-09-20T16:44:38.933Z,52.42
2022-09-20T16:47:13.187Z,52.31
2022-09-20T16:49:40.167Z,52.40
2022-09-20T16:52:09.127Z,52.77
2022-09-20T16:54:36.341Z,52.87
2022-09-20T16:57:03.577Z,53.28
2022-09-20T16:59:30.798Z,53.32
2022-09-20T17:01:58.887Z,53.99
2022-09-20T17:04:26.071Z,54.49
2022-09-20T17:06:53.350Z,54.90
2022-09-20T17:09:20.931Z,55.49
2022-09-20T17:11:50.401Z,55.79
2022-09-20T17:14:20.753Z,56.82
2022-09-20T17:16:50.375Z,57.14
2022-09-20T17:19:29.225Z,57.58
2022-09-20T17:21:56.366Z,57.71
2022-09-20T17:24:26.417Z,57.94
2022-09-20T17:26:53.823Z,58.40
2022-09-20T17:29:21.070Z,58.82
2022-09-20T17:31:55.546Z,59.61
2022-09-20T17:34:25.322Z,60.16
2022-09-20T17:36:54.957Z,60.54
2022-09-20T17:39:22.484Z,61.00
2022-09-20T17:41:50.714Z,61.64
2022-09-20T17:44:19.874Z,62.18
2022-09-20T17:46:49.913Z,62.19
2022-09-20T17:49:20.591Z,62.51
2022-09-20T17:51:55.329Z,62.73
2022-09-20T17:54:24.079Z,63.10
2022-09-20T17:56:55.679Z,63.37
2022-09-20T17:59:23.035Z,63.75
2022-09-20T18:01:54.215Z,64.02
2022-09-20T18:04:22.330Z,64.43
2022-09-20T18:06:52.245Z,65.00
2022-09-20T18:09:24.080Z,65.42
2022-09-20T18:11:54.390Z,66.08
2022-09-20T18:14:27.446Z,66.33
2022-09-20T18:17:00.692Z,66.65
2022-09-20T18:19:35.669Z,67.24
2022-09-20T18:22:04.234Z,67.71
2022-09-20T18:24:31.698Z,67.91
2022-09-20T18:27:00.779Z,68.16
2022-09-20T18:29:29.154Z,68.68
2022-09-20T18:31:57.735Z,68.90
2022-09-20T18:34:31.936Z,69.18
2022-09-20T18:37:01.721Z,69.41
2022-09-20T18:39:32.513Z,69.81
2022-09-20T18:42:00.241Z,70.05
2022-09-20T18:44:34.236Z,70.37
2022-09-20T18:47:04.925Z,70.27
2022-09-20T18:49:32.551Z,70.53
2022-09-20T18:51:59.640Z,70.55
2022-09-20T18:54:30.383Z,70.74
2022-09-20T18:56:58.141Z,71.04
2022-09-20T18:59:27.742Z,71.33
2022-09-20T19:02:45.570Z,71.63
2022-09-20T19:05:37.023Z,71.99
2022-09-20T19:08:34.172Z,72.05
2022-09-20T19:11:09.963Z,72.07
2022-09-20T19:14:05.193Z,72.38
2022-09-20T19:16:41.303Z,72.51
2022-09-20T19:19:40.877Z,72.51
2022-09-20T19:22:51.449Z,72.75
2022-09-20T19:25:44.014Z,73.25
2022-09-20T19:28:14.973Z,73.51
2022-09-20T19:30:42.922Z,73.98
2022-09-20T19:33:17.929Z,74.27
2022-09-20T19:35:54.436Z,74.54
2022-09-20T19:38:45.192Z,74.72
2022-09-20T19:41:47.240Z,75.11
2022-09-20T19:44:59.227Z,75.34
2022-09-20T19:48:15.943Z,75.45
2022-09-20T19:50:48.478Z,75.86
2022-09-20T19:53:19.434Z,76.13
2022-09-20T19:55:52.071Z,76.42
2022-09-20T19:58:19.540Z,76.22
2022-09-20T20:00:47.874Z,76.39
2022-09-20T20:03:16.600Z,76.69
2022-09-20T20:06:08.391Z,76.89
2022-09-20T20:09:17.241Z,77.07
2022-09-20T20:12:05.371Z,77.45
2022-09-20T20:14:50.780Z,77.55
2022-09-20T20:18:16.682Z,77.95
2022-09-20T20:20:53.605Z,77.77
2022-09-20T20:23:50.176Z,78.04
2022-09-20T20:26:25.349Z,78.33
2022-09-20T20:28:52.921Z,78.43
2022-09-20T20:31:21.420Z,78.71
2022-09-20T20:33:49.389Z,78.60
2022-09-20T20:36:17.461Z,78.97
2022-09-20T20:38:49.649Z,79.20
2022-09-20T20:41:21.435Z,79.25
2022-09-20T20:43:57.137Z,79.34
2022-09-20T20:46:26.003Z,79.38
2022-09-20T20:48:53.171Z,79.58
2022-09-20T20:51:23.108Z,79.72
2022-09-20T20:53:53.218Z,79.75
2022-09-20T20:56:27.522Z,79.95
2022-09-20T20:58:55.957Z,80.10
2022-09-20T21:01:29.002Z,80.39
2022-09-20T21:03:57.635Z,80.57
2022-09-20T21:06:34.388Z,80.60
2022-09-20T21:09:03.858Z,80.82
2022-09-20T21:11:37.827Z,81.13
2022-09-20T21:14:07.310Z,80.98
2022-09-20T21:16:38.174Z,81.19
2022-09-20T21:19:06.276Z,81.33
2022-09-20T21:21:38.393Z,81.24
2022-09-20T21:24:08.627Z,81.42
2022-09-20T21:26:38.015Z,81.38
2022-09-20T21:29:08.346Z,81.67
2022-09-20T21:31:39.055Z,81.38
2022-09-20T21:34:08.130Z,81.80
2022-09-20T21:36:39.530Z,81.87
2022-09-20T21:39:06.612Z,82.14
2022-09-20T21:41:37.143Z,82.07
2022-09-20T21:44:06.569Z,82.42
2022-09-20T21:46:42.475Z,82.43
2022-09-20T21:49:12.018Z,82.34
2022-09-20T21:51:45.170Z,82.54
2022-09-20T21:54:12.411Z,82.71
2022-09-20T21:56:41.337Z,82.73
2022-09-20T21:59:09.428Z,82.87
2022-09-20T22:01:40.284Z,83.11
2022-09-20T22:04:12.113Z,83.27
2022-09-20T22:06:44.728Z,83.30
2022-09-20T22:09:17.542Z,83.58
2022-09-20T22:11:48.787Z,83.33
2022-09-20T22:14:19.409Z,83.54
2022-09-20T22:16:48.587Z,83.48
2022-09-20T22:19:18.651Z,83.58
2022-09-20T22:21:50.952Z,83.64
2022-09-20T22:24:19.307Z,84.07
2022-09-20T22:26:51.430Z,83.67
2022-09-20T22:29:19.118Z,83.28
2022-09-20T22:31:50.019Z,82.99
2022-09-20T22:34:23.536Z,83.22
2022-09-20T22:36:50.701Z,83.37
2022-09-20T22:39:18.133Z,83.46
2022-09-20T22:41:47.873Z,83.48
2022-09-20T22:44:15.142Z,83.33
2022-09-20T22:46:42.167Z,83.37
2022-09-20T22:49:09.784Z,83.40
2022-09-20T22:51:37.875Z,83.49
2022-09-20T22:54:11.754Z,83.43
2022-09-20T22:56:41.318Z,83.48
2022-09-20T22:59:12.520Z,83.03
2022-09-20T23:01:43.622Z,83.14
2022-09-20T23:04:14.467Z,82.93
2022-09-20T23:06:48.226Z,82.86
2022-09-20T23:09:17.960Z,82.74
2022-09-20T23:11:45.918Z,82.94
2022-09-20T23:14:20.267Z,83.03
2022-09-20T23:16:48.651Z,83.09
2022-09-20T23:19:16.266Z,82.97
2022-09-20T23:21:44.844Z,83.27
2022-09-20T23:24:14.488Z,82.99
2022-09-20T23:26:43.587Z,83.32
2022-09-20T23:29:14.388Z,83.58
2022-09-20T23:31:46.174Z,83.27
2022-09-20T23:34:15.798Z,83.40
2022-09-20T23:36:44.234Z,83.56
2022-09-20T23:39:12.435Z,83.63
2022-09-20T23:41:41.292Z,83.74
2022-09-20T23:44:10.218Z,83.76
2022-09-20T23:46:38.518Z,83.86
2022-09-20T23:49:07.086Z,83.81
2022-09-20T23:51:35.336Z,83.73
2022-09-20T23:54:02.779Z,83.66
2022-09-20T23:56:30.223Z,83.60
2022-09-20T23:58:57.394Z,83.68
